Weather data: current Dienstag, 27.06.2017 11:35
Date Time Temperature Humidity Barometer Rain Wind Direction Direction Dew point Wind chill Wind gust
27.06.2017 11:35 27,0 C 72 % 1013,2 hPa 0,0 l/m 7,7 km/h (2 Bft) W-NW 285 21,5 C 26,8 C 11,3 km/h (2 Bft)
27.06.2017 11:30 27,1 C 71 % 1013,1 hPa 0,0 l/m 8,7 km/h (2 Bft) W-NW 284 21,4 C 26,7 C 12,9 km/h (3 Bft)
27.06.2017 11:25 27,7 C 67 % 1013,2 hPa 0,0 l/m 8,2 km/h (2 Bft) W-NW 295 21,0 C 27,4 C 12,9 km/h (3 Bft)
27.06.2017 11:20 28,2 C 66 % 1013,1 hPa 0,0 l/m 6,1 km/h (2 Bft) W 281 21,2 C 28,2 C 11,3 km/h (2 Bft)
27.06.2017 11:15 28,5 C 66 % 1013,0 hPa 0,0 l/m 3,1 km/h (1 Bft) W-NW 290 21,5 C 28,5 C 8,0 km/h (2 Bft)
27.06.2017 11:10 28,5 C 67 % 1012,9 hPa 0,0 l/m 2,0 km/h (1 Bft) S 186 21,8 C 28,5 C 11,3 km/h (2 Bft)
27.06.2017 11:05 28,2 C 66 % 1012,9 hPa 0,0 l/m 1,8 km/h (1 Bft) S 169 21,2 C 28,2 C 3,2 km/h (1 Bft)
27.06.2017 11:00 27,9 C 67 % 1012,8 hPa 0,0 l/m 4,1 km/h (1 Bft) S-SW 203 21,2 C 27,9 C 9,7 km/h (2 Bft)
27.06.2017 10:55 28,2 C 66 % 1012,9 hPa 0,0 l/m 2,8 km/h (1 Bft) SW 234 21,2 C 28,2 C 6,4 km/h (2 Bft)
27.06.2017 10:50 27,9 C 70 % 1012,9 hPa 0,0 l/m 4,0 km/h (1 Bft) SW 233 21,9 C 27,9 C 9,7 km/h (2 Bft)
27.06.2017 10:45 28,0 C 69 % 1012,8 hPa 0,0 l/m 5,1 km/h (1 Bft) W-SW 239 21,8 C 28,0 C 8,0 km/h (2 Bft)
27.06.2017 10:40 27,8 C 72 % 1012,8 hPa 0,0 l/m 4,8 km/h (1 Bft) S-SW 210 22,3 C 27,8 C 11,3 km/h (2 Bft)
27.06.2017 10:35 27,7 C 72 % 1012,8 hPa 0,0 l/m 5,6 km/h (1 Bft) S-SW 208 22,2 C 27,7 C 11,3 km/h (2 Bft)
27.06.2017 10:30 27,8 C 70 % 1012,8 hPa 0,0 l/m 7,5 km/h (2 Bft) SW 221 21,8 C 27,6 C 12,9 km/h (3 Bft)
27.06.2017 10:25 27,7 C 72 % 1012,7 hPa 0,0 l/m 5,5 km/h (1 Bft) SW 225 22,2 C 27,7 C 9,7 km/h (2 Bft)
27.06.2017 10:20 27,7 C 72 % 1012,7 hPa 0,0 l/m 5,4 km/h (1 Bft) S 171 22,2 C 27,7 C 9,7 km/h (2 Bft)
27.06.2017 10:15 27,4 C 72 % 1012,6 hPa 0,0 l/m 6,9 km/h (2 Bft) S-SE 152 21,9 C 27,3 C 11,3 km/h (2 Bft)
27.06.2017 10:10 27,3 C 72 % 1012,6 hPa 0,0 l/m 8,0 km/h (2 Bft) S 184 21,8 C 27,0 C 12,9 km/h (3 Bft)
27.06.2017 10:05 27,1 C 72 % 1012,6 hPa 0,0 l/m 7,5 km/h (2 Bft) S-SW 205 21,6 C 26,9 C 14,5 km/h (3 Bft)
27.06.2017 10:00 26,9 C 73 % 1012,6 hPa 0,0 l/m 11,8 km/h (2 Bft) SE 145 21,6 C 26,0 C 14,5 km/h (3 Bft)
27.06.2017 09:55 27,1 C 72 % 1012,6 hPa 0,0 l/m 10,9 km/h (2 Bft) S-SE 168 21,6 C 26,4 C 16,1 km/h (3 Bft)
27.06.2017 09:50 27,2 C 74 % 1012,6 hPa 0,0 l/m 10,9 km/h (2 Bft) S 172 22,1 C 26,5 C 16,1 km/h (3 Bft)
27.06.2017 09:45 27,3 C 73 % 1012,6 hPa 0,0 l/m 10,8 km/h (2 Bft) S-SW 210 22,0 C 26,6 C 17,7 km/h (3 Bft)
27.06.2017 09:40 27,6 C 74 % 1012,5 hPa 0,0 l/m 10,5 km/h (2 Bft) S 175 22,5 C 27,0 C 17,7 km/h (3 Bft)
27.06.2017 09:35 27,9 C 71 % 1012,5 hPa 0,0 l/m 10,8 km/h (2 Bft) S-SE 165 22,1 C 27,3 C 16,1 km/h (3 Bft)
27.06.2017 09:30 28,3 C 68 % 1012,5 hPa 0,0 l/m 7,5 km/h (2 Bft) S-SW 195 21,8 C 28,1 C 16,1 km/h (3 Bft)
27.06.2017 09:25 28,5 C 65 % 1012,5 hPa 0,0 l/m 6,5 km/h (2 Bft) S 169 21,3 C 28,5 C 11,3 km/h (2 Bft)
27.06.2017 09:20 28,8 C 65 % 1012,4 hPa 0,0 l/m 7,1 km/h (2 Bft) S-SE 155 21,5 C 28,7 C 11,3 km/h (2 Bft)
27.06.2017 09:15 29,2 C 65 % 1012,3 hPa 0,0 l/m 6,0 km/h (2 Bft) S 191 21,9 C 29,2 C 11,3 km/h (2 Bft)
27.06.2017 09:10 29,6 C 51 % 1012,3 hPa 0,0 l/m 1,7 km/h (1 Bft) S 188 18,4 C 29,6 C 8,0 km/h (2 Bft)
27.06.2017 09:05 29,4 C 51 % 1012,3 hPa 0,0 l/m 0,3 km/h (0 Bft) SW 221 18,2 C 29,4 C 3,2 km/h (1 Bft)
27.06.2017 09:00 29,0 C 57 % 1012,3 hPa 0,0 l/m 0,0 km/h (0 Bft) N 5 19,6 C 29,0 C 0,0 km/h (0 Bft)
27.06.2017 08:55 28,6 C 60 % 1012,3 hPa 0,0 l/m 0,0 km/h (0 Bft) N 5 20,1 C 28,6 C 0,0 km/h (0 Bft)
27.06.2017 08:50 28,0 C 62 % 1012,3 hPa 0,0 l/m 0,1 km/h (0 Bft) N 5 20,0 C 28,0 C 1,6 km/h (1 Bft)
27.06.2017 08:45 27,9 C 62 % 1012,3 hPa 0,0 l/m 0,0 km/h (0 Bft) N 2 19,9 C 27,9 C 0,0 km/h (0 Bft)
27.06.2017 08:40 27,6 C 66 % 1012,4 hPa 0,0 l/m 0,0 km/h (0 Bft) N 2 20,7 C 27,6 C 0,0 km/h (0 Bft)
27.06.2017 08:35 27,3 C 66 % 1012,3 hPa 0,0 l/m 0,1 km/h (0 Bft) N 2 20,4 C 27,3 C 1,6 km/h (1 Bft)
27.06.2017 08:30 26,9 C 69 % 1012,3 hPa 0,0 l/m 0,1 km/h (0 Bft) N 9 20,7 C 26,9 C 1,6 km/h (1 Bft)
27.06.2017 08:25 26,6 C 69 % 1012,3 hPa 0,0 l/m 0,2 km/h (0 Bft) N 3 20,4 C 26,6 C 1,6 km/h (1 Bft)
27.06.2017 08:20 26,6 C 66 % 1012,4 hPa 0,0 l/m 2,9 km/h (1 Bft) N-NW 344 19,7 C 26,6 C 6,4 km/h (2 Bft)
27.06.2017 08:15 27,2 C 63 % 1012,3 hPa 0,0 l/m 4,4 km/h (1 Bft) N 354 19,5 C 27,2 C 11,3 km/h (2 Bft)
27.06.2017 08:10 28,1 C 60 % 1012,2 hPa 0,0 l/m 1,6 km/h (1 Bft) W-NW 283 19,6 C 28,1 C 3,2 km/h (1 Bft)
27.06.2017 08:05 28,9 C 55 % 1012,1 hPa 0,0 l/m 0,0 km/h (0 Bft) E 91 18,9 C 28,9 C 0,0 km/h (0 Bft)
27.06.2017 08:00 29,1 C 54 % 1012,1 hPa 0,0 l/m 0,0 km/h (0 Bft) E 91 18,8 C 29,1 C 0,0 km/h (0 Bft)
27.06.2017 07:55 28,4 C 57 % 1012,1 hPa 0,0 l/m 0,0 km/h (0 Bft) E 91 19,0 C 28,4 C 0,0 km/h (0 Bft)
27.06.2017 07:50 28,1 C 60 % 1012,0 hPa 0,0 l/m 0,4 km/h (0 Bft) E-SE 103 19,6 C 28,1 C 1,6 km/h (1 Bft)
27.06.2017 07:45 28,0 C 60 % 1012,0 hPa 0,0 l/m 0,0 km/h (0 Bft) E 94 19,5 C 28,0 C 1,6 km/h (1 Bft)
27.06.2017 07:40 27,8 C 61 % 1012,0 hPa 0,0 l/m 0,0 km/h (0 Bft) E 92 19,6 C 27,8 C 0,0 km/h (0 Bft)
27.06.2017 07:35 27,1 C 62 % 1012,0 hPa 0,0 l/m 0,0 km/h (0 Bft) E 92 19,2 C 27,1 C 0,0 km/h (0 Bft)
27.06.2017 07:30 26,8 C 64 % 1012,0 hPa 0,0 l/m 0,0 km/h (0 Bft) E 92 19,4 C 26,8 C 0,0 km/h (0 Bft)
27.06.2017 07:25 26,3 C 65 % 1012,0 hPa 0,0 l/m 0,0 km/h (0 Bft) E 92 19,2 C 26,3 C 0,0 km/h (0 Bft)
27.06.2017 07:20 26,3 C 63 % 1011,9 hPa 0,0 l/m 0,0 km/h (0 Bft) E 92 18,7 C 26,3 C 0,0 km/h (0 Bft)
27.06.2017 07:15 26,3 C 62 % 1011,9 hPa 0,0 l/m 0,0 km/h (0 Bft) E 92 18,4 C 26,3 C 0,0 km/h (0 Bft)
27.06.2017 07:10 26,1 C 60 % 1011,8 hPa 0,0 l/m 0,0 km/h (0 Bft) E 92 17,7 C 26,1 C 0,0 km/h (0 Bft)
27.06.2017 07:05 25,9 C 58 % 1011,7 hPa 0,0 l/m 0,0 km/h (0 Bft) E 92 17,0 C 25,9 C 0,0 km/h (0 Bft)
27.06.2017 07:00 25,3 C 59 % 1011,6 hPa 0,0 l/m 2,2 km/h (1 Bft) E 92 16,7 C 25,3 C 3,2 km/h (1 Bft)
27.06.2017 06:55 25,2 C 61 % 1011,6 hPa 0,0 l/m 3,2 km/h (1 Bft) E 92 17,1 C 25,2 C 4,8 km/h (1 Bft)
27.06.2017 06:50 25,4 C 60 % 1011,6 hPa 0,0 l/m 0,3 km/h (0 Bft) E 91 17,1 C 25,4 C 1,6 km/h (1 Bft)
27.06.2017 06:45 25,2 C 60 % 1011,5 hPa 0,0 l/m 0,0 km/h (0 Bft) E 89 16,9 C 25,2 C 1,6 km/h (1 Bft)
27.06.2017 06:40 24,9 C 60 % 1011,5 hPa 0,0 l/m 0,0 km/h (0 Bft) E 89 16,6 C 24,9 C 0,0 km/h (0 Bft)
27.06.2017 06:35 24,6 C 61 % 1011,5 hPa 0,0 l/m 0,1 km/h (0 Bft) E 89 16,6 C 24,6 C 1,6 km/h (1 Bft)
27.06.2017 06:30 24,5 C 62 % 1011,6 hPa 0,0 l/m 0,1 km/h (0 Bft) E 89 16,7 C 24,5 C 1,6 km/h (1 Bft)
27.06.2017 06:25 24,3 C 62 % 1011,6 hPa 0,0 l/m 0,0 km/h (0 Bft) E 89 16,5 C 24,3 C 0,0 km/h (0 Bft)
27.06.2017 06:20 24,0 C 63 % 1011,5 hPa 0,0 l/m 0,0 km/h (0 Bft) E 89 16,5 C 24,0 C 0,0 km/h (0 Bft)
27.06.2017 06:15 24,0 C 64 % 1011,5 hPa 0,0 l/m 0,0 km/h (0 Bft) E 89 16,8 C 24,0 C 0,0 km/h (0 Bft)
27.06.2017 06:10 24,1 C 63 % 1011,5 hPa 0,0 l/m 0,0 km/h (0 Bft) E 89 16,6 C 24,1 C 0,0 km/h (0 Bft)
27.06.2017 06:05 24,2 C 62 % 1011,5 hPa 0,0 l/m 0,0 km/h (0 Bft) E 89 16,4 C 24,2 C 0,0 km/h (0 Bft)
27.06.2017 06:00 24,7 C 61 % 1011,5 hPa 0,0 l/m 0,0 km/h (0 Bft) E 89 16,7 C 24,7 C 0,0 km/h (0 Bft)
27.06.2017 05:55 24,8 C 59 % 1011,5 hPa 0,0 l/m 0,0 km/h (0 Bft) E 89 16,2 C 24,8 C 0,0 km/h (0 Bft)
27.06.2017 05:50 24,8 C 59 % 1011,4 hPa 0,0 l/m 0,0 km/h (0 Bft) E 89 16,2 C 24,8 C 1,6 km/h (1 Bft)
27.06.2017 05:45 24,6 C 60 % 1011,5 hPa 0,0 l/m 0,3 km/h (0 Bft) E 89 16,3 C 24,6 C 1,6 km/h (1 Bft)
27.06.2017 05:40 24,3 C 60 % 1011,5 hPa 0,0 l/m 0,9 km/h (0 Bft) E 89 16,0 C 24,3 C 1,6 km/h (1 Bft)
27.06.2017 05:35 24,0 C 62 % 1011,4 hPa 0,0 l/m 2,4 km/h (1 Bft) E 89 16,3 C 24,0 C 4,8 km/h (1 Bft)
27.06.2017 05:30 23,8 C 63 % 1011,4 hPa 0,0 l/m 3,3 km/h (1 Bft) E 91 16,3 C 23,8 C 4,8 km/h (1 Bft)
27.06.2017 05:25 24,1 C 63 % 1011,5 hPa 0,0 l/m 0,8 km/h (0 Bft) E 90 16,6 C 24,1 C 4,8 km/h (1 Bft)
27.06.2017 05:20 24,3 C 61 % 1011,4 hPa 0,0 l/m 0,0 km/h (0 Bft) E 85 16,3 C 24,3 C 0,0 km/h (0 Bft)
27.06.2017 05:15 24,5 C 60 % 1011,4 hPa 0,0 l/m 0,0 km/h (0 Bft) E 85 16,2 C 24,5 C 0,0 km/h (0 Bft)
27.06.2017 05:10 24,7 C 60 % 1011,4 hPa 0,0 l/m 0,0 km/h (0 Bft) E 85 16,4 C 24,7 C 0,0 km/h (0 Bft)
27.06.2017 05:05 24,8 C 59 % 1011,4 hPa 0,0 l/m 0,0 km/h (0 Bft) E 85 16,2 C 24,8 C 0,0 km/h (0 Bft)
27.06.2017 05:00 25,1 C 59 % 1011,3 hPa 0,0 l/m 0,0 km/h (0 Bft) E 85 16,5 C 25,1 C 0,0 km/h (0 Bft)
27.06.2017 04:55 25,1 C 58 % 1011,3 hPa 0,0 l/m 0,1 km/h (0 Bft) E 85 16,2 C 25,1 C 1,6 km/h (1 Bft)
27.06.2017 04:50 24,9 C 58 % 1011,2 hPa 0,0 l/m 1,4 km/h (1 Bft) E 85 16,1 C 24,9 C 3,2 km/h (1 Bft)
27.06.2017 04:45 24,6 C 60 % 1011,2 hPa 0,0 l/m 4,2 km/h (1 Bft) E 85 16,3 C 24,6 C 6,4 km/h (2 Bft)
27.06.2017 04:40 24,4 C 61 % 1011,3 hPa 0,0 l/m 3,7 km/h (1 Bft) E 87 16,4 C 24,4 C 6,4 km/h (2 Bft)
27.06.2017 04:35 24,6 C 60 % 1011,4 hPa 0,0 l/m 0,1 km/h (0 Bft) E-NE 75 16,3 C 24,6 C 1,6 km/h (1 Bft)
27.06.2017 04:30 24,7 C 59 % 1011,4 hPa 0,0 l/m 0,0 km/h (0 Bft) E-NE 75 16,1 C 24,7 C 0,0 km/h (0 Bft)
27.06.2017 04:25 24,6 C 60 % 1011,4 hPa 0,0 l/m 0,0 km/h (0 Bft) E-NE 75 16,3 C 24,6 C 0,0 km/h (0 Bft)
27.06.2017 04:20 24,4 C 61 % 1011,4 hPa 0,0 l/m 0,0 km/h (0 Bft) E 86 16,4 C 24,4 C 0,0 km/h (0 Bft)
27.06.2017 04:15 24,4 C 61 % 1011,4 hPa 0,0 l/m 0,0 km/h (0 Bft) E 86 16,4 C 24,4 C 0,0 km/h (0 Bft)
27.06.2017 04:10 24,6 C 60 % 1011,4 hPa 0,0 l/m 0,0 km/h (0 Bft) E 86 16,3 C 24,6 C 0,0 km/h (0 Bft)
27.06.2017 04:05 24,9 C 59 % 1011,4 hPa 0,0 l/m 1,0 km/h (0 Bft) E 86 16,3 C 24,9 C 3,2 km/h (1 Bft)
27.06.2017 04:00 24,4 C 60 % 1011,4 hPa 0,0 l/m 3,5 km/h (1 Bft) E 89 16,1 C 24,4 C 4,8 km/h (1 Bft)
27.06.2017 03:55 24,4 C 61 % 1011,5 hPa 0,0 l/m 0,1 km/h (0 Bft) E 79 16,4 C 24,4 C 3,2 km/h (1 Bft)
27.06.2017 03:50 24,2 C 61 % 1011,5 hPa 0,0 l/m 0,0 km/h (0 Bft) E 84 16,2 C 24,2 C 1,6 km/h (1 Bft)
27.06.2017 03:45 24,4 C 61 % 1011,5 hPa 0,0 l/m 0,5 km/h (0 Bft) E 86 16,4 C 24,4 C 1,6 km/h (1 Bft)
27.06.2017 03:40 24,7 C 60 % 1011,5 hPa 0,0 l/m 0,1 km/h (0 Bft) E 95 16,4 C 24,7 C 1,6 km/h (1 Bft)
27.06.2017 03:35 24,6 C 60 % 1011,4 hPa 0,0 l/m 1,1 km/h (1 Bft) E 95 16,3 C 24,6 C 1,6 km/h (1 Bft)
27.06.2017 03:30 24,6 C 61 % 1011,4 hPa 0,0 l/m 1,2 km/h (1 Bft) E 95 16,6 C 24,6 C 3,2 km/h (1 Bft)
27.06.2017 03:25 25,1 C 58 % 1011,4 hPa 0,0 l/m 0,8 km/h (0 Bft) E 86 16,2 C 25,1 C 1,6 km/h (1 Bft)
27.06.2017 03:20 25,1 C 58 % 1011,4 hPa 0,0 l/m 0,0 km/h (0 Bft) E 86 16,2 C 25,1 C 0,0 km/h (0 Bft)
27.06.2017 03:15 24,7 C 59 % 1011,5 hPa 0,0 l/m 0,2 km/h (0 Bft) E 86 16,1 C 24,7 C 1,6 km/h (1 Bft)
27.06.2017 03:10 24,2 C 61 % 1011,5 hPa 0,0 l/m 0,4 km/h (0 Bft) E 86 16,2 C 24,2 C 1,6 km/h (1 Bft)
27.06.2017 03:05 23,9 C 62 % 1011,6 hPa 0,0 l/m 0,3 km/h (0 Bft) E 86 16,2 C 23,9 C 1,6 km/h (1 Bft)
27.06.2017 03:00 24,1 C 61 % 1011,5 hPa 0,0 l/m 2,7 km/h (1 Bft) E 86 16,1 C 24,1 C 4,8 km/h (1 Bft)
27.06.2017 02:55 24,2 C 61 % 1011,5 hPa 0,0 l/m 4,0 km/h (1 Bft) E 83 16,2 C 24,2 C 4,8 km/h (1 Bft)
27.06.2017 02:50 24,3 C 60 % 1011,5 hPa 0,0 l/m 3,4 km/h (1 Bft) E 83 16,0 C 24,3 C 4,8 km/h (1 Bft)
27.06.2017 02:45 24,6 C 59 % 1011,6 hPa 0,0 l/m 0,8 km/h (0 Bft) E 90 16,0 C 24,6 C 3,2 km/h (1 Bft)
27.06.2017 02:40 24,7 C 59 % 1011,6 hPa 0,0 l/m 0,0 km/h (0 Bft) E 99 16,1 C 24,7 C 0,0 km/h (0 Bft)
27.06.2017 02:35 24,7 C 59 % 1011,7 hPa 0,0 l/m 0,0 km/h (0 Bft) E 99 16,1 C 24,7 C 0,0 km/h (0 Bft)
27.06.2017 02:30 24,6 C 60 % 1011,7 hPa 0,0 l/m 0,0 km/h (0 Bft) E 99 16,3 C 24,6 C 0,0 km/h (0 Bft)
27.06.2017 02:25 24,4 C 60 % 1011,7 hPa 0,0 l/m 0,0 km/h (0 Bft) E 99 16,1 C 24,4 C 0,0 km/h (0 Bft)
27.06.2017 02:20 24,6 C 60 % 1011,7 hPa 0,0 l/m 0,0 km/h (0 Bft) E 99 16,3 C 24,6 C 1,6 km/h (1 Bft)
27.06.2017 02:15 24,7 C 59 % 1011,7 hPa 0,0 l/m 0,1 km/h (0 Bft) E 99 16,1 C 24,7 C 1,6 km/h (1 Bft)
27.06.2017 02:10 25,0 C 58 % 1011,7 hPa 0,0 l/m 0,1 km/h (0 Bft) E 100 16,1 C 25,0 C 1,6 km/h (1 Bft)
27.06.2017 02:05 25,3 C 56 % 1011,5 hPa 0,0 l/m 0,0 km/h (0 Bft) E-SE 105 15,9 C 25,3 C 1,6 km/h (1 Bft)
27.06.2017 02:00 25,4 C 56 % 1011,5 hPa 0,0 l/m 0,6 km/h (0 Bft) E-SE 113 16,0 C 25,4 C 1,6 km/h (1 Bft)
27.06.2017 01:55 25,4 C 56 % 1011,5 hPa 0,0 l/m 1,2 km/h (1 Bft) SE 125 16,0 C 25,4 C 3,2 km/h (1 Bft)
27.06.2017 01:50 25,4 C 56 % 1011,5 hPa 0,0 l/m 1,3 km/h (1 Bft) SE 129 16,0 C 25,4 C 3,2 km/h (1 Bft)
27.06.2017 01:45 25,4 C 56 % 1011,6 hPa 0,0 l/m 0,7 km/h (0 Bft) E-SE 110 16,0 C 25,4 C 1,6 km/h (1 Bft)
27.06.2017 01:40 25,4 C 56 % 1011,6 hPa 0,0 l/m 1,6 km/h (1 Bft) E-SE 108 16,0 C 25,4 C 3,2 km/h (1 Bft)
27.06.2017 01:35 24,9 C 58 % 1011,7 hPa 0,0 l/m 1,4 km/h (1 Bft) E-SE 114 16,1 C 24,9 C 4,8 km/h (1 Bft)
27.06.2017 01:30 24,8 C 59 % 1011,8 hPa 0,0 l/m 1,1 km/h (1 Bft) E 96 16,2 C 24,8 C 3,2 km/h (1 Bft)
27.06.2017 01:25 24,9 C 59 % 1011,9 hPa 0,0 l/m 0,0 km/h (0 Bft) E 91 16,3 C 24,9 C 1,6 km/h (1 Bft)
27.06.2017 01:20 25,0 C 58 % 1011,9 hPa 0,0 l/m 0,0 km/h (0 Bft) E 90 16,1 C 25,0 C 0,0 km/h (0 Bft)
27.06.2017 01:15 25,1 C 58 % 1011,8 hPa 0,0 l/m 0,1 km/h (0 Bft) E 90 16,2 C 25,1 C 1,6 km/h (1 Bft)
27.06.2017 01:10 25,5 C 57 % 1011,7 hPa 0,0 l/m 0,1 km/h (0 Bft) E 90 16,3 C 25,5 C 1,6 km/h (1 Bft)
27.06.2017 01:05 25,7 C 56 % 1011,6 hPa 0,0 l/m 0,0 km/h (0 Bft) E 90 16,2 C 25,7 C 1,6 km/h (1 Bft)
27.06.2017 01:00 25,7 C 56 % 1011,6 hPa 0,0 l/m 0,7 km/h (0 Bft) E 90 16,2 C 25,7 C 1,6 km/h (1 Bft)
27.06.2017 00:55 25,6 C 55 % 1011,6 hPa 0,0 l/m 2,7 km/h (1 Bft) E 84 15,9 C 25,6 C 3,2 km/h (1 Bft)
27.06.2017 00:50 25,7 C 56 % 1011,5 hPa 0,0 l/m 0,1 km/h (0 Bft) E-NE 75 16,2 C 25,7 C 1,6 km/h (1 Bft)
27.06.2017 00:45 25,9 C 55 % 1011,4 hPa 0,0 l/m 0,5 km/h (0 Bft) E-NE 72 16,2 C 25,9 C 1,6 km/h (1 Bft)
27.06.2017 00:40 25,7 C 55 % 1011,3 hPa 0,0 l/m 4,1 km/h (1 Bft) E-NE 72 16,0 C 25,7 C 6,4 km/h (2 Bft)
27.06.2017 00:35 25,8 C 54 % 1011,2 hPa 0,0 l/m 4,5 km/h (1 Bft) E 86 15,8 C 25,8 C 6,4 km/h (2 Bft)
27.06.2017 00:30 26,1 C 53 % 1011,3 hPa 0,0 l/m 3,8 km/h (1 Bft) E-NE 71 15,8 C 26,1 C 6,4 km/h (2 Bft)
27.06.2017 00:25 26,2 C 54 % 1011,4 hPa 0,0 l/m 3,2 km/h (1 Bft) E-NE 75 16,1 C 26,2 C 6,4 km/h (2 Bft)
27.06.2017 00:20 26,2 C 52 % 1011,5 hPa 0,0 l/m 4,2 km/h (1 Bft) E-NE 63 15,6 C 26,2 C 6,4 km/h (2 Bft)
27.06.2017 00:15 26,1 C 54 % 1011,5 hPa 0,0 l/m 4,2 km/h (1 Bft) NE 56 16,0 C 26,1 C 8,0 km/h (2 Bft)
27.06.2017 00:10 25,9 C 56 % 1011,5 hPa 0,0 l/m 5,8 km/h (2 Bft) NE 53 16,4 C 25,9 C 9,7 km/h (2 Bft)
27.06.2017 00:05 25,7 C 58 % 1011,5 hPa 0,0 l/m 5,2 km/h (1 Bft) E-NE 65 16,8 C 25,7 C 8,0 km/h (2 Bft)
27.06.2017 00:00 25,6 C 61 % 1011,5 hPa 0,0 l/m 3,4 km/h (1 Bft) E-NE 72 17,5 C 25,6 C 6,4 km/h (2 Bft)
_ Min-Time 05:30 09:05 00:35 - 01:05 - - 00:20 05:30 01:20
Minimum _ 23,8 C 51 % 1011,2 hPa - 0,0 km/h (0 Bft) - - 15,6 C 23,8 C 0,0 km/h (0 Bft)
_ Max-Time 09:10 09:40 11:25 00:00 10:00 - - 09:40 09:10 09:40
Maximum _ 29,6 C 74 % 1013,2 hPa 0,0 l/m 11,8 km/h
SE (2 Bft)
- - 22,5 C 29,6 C 17,7 km/h
S (3 Bft)
Average _ 26,0 C 62 % 1011,9 hPa #0,0 l/m 2,2 km/h (1 Bft) E - 18,0 C 25,9 C 4,2 km/h (1 Bft)